createdAt,value
2019-02-12T00:00:55.935Z,8.61
2019-02-12T00:03:27.766Z,8.56
2019-02-12T00:05:58.730Z,8.62
2019-02-12T00:08:29.665Z,8.64
2019-02-12T00:11:02.392Z,8.56
2019-02-12T00:13:32.905Z,8.64
2019-02-12T00:16:03.342Z,8.66
2019-02-12T00:18:36.001Z,8.72
2019-02-12T00:21:09.203Z,8.69
2019-02-12T00:23:40.668Z,8.70
2019-02-12T00:26:13.660Z,8.71
2019-02-12T00:28:44.434Z,8.67
2019-02-12T00:31:15.026Z,8.70
2019-02-12T00:33:46.274Z,8.71
2019-02-12T00:36:20.113Z,8.63
2019-02-12T00:38:50.619Z,8.63
2019-02-12T00:41:22.307Z,8.69
2019-02-12T00:43:53.402Z,8.69
2019-02-12T00:46:24.123Z,8.77
2019-02-12T00:48:55.448Z,8.81
2019-02-12T00:51:25.960Z,8.89
2019-02-12T00:53:56.647Z,8.89
2019-02-12T00:56:28.866Z,8.86
2019-02-12T00:58:59.591Z,8.84
2019-02-12T01:01:30.759Z,8.81
2019-02-12T01:04:01.960Z,8.86
2019-02-12T01:06:32.431Z,8.91
2019-02-12T01:09:04.786Z,9.03
2019-02-12T01:11:35.947Z,9.06
2019-02-12T01:14:06.808Z,9.08
2019-02-12T01:16:50.580Z,9.08
2019-02-12T01:19:22.705Z,9.10
2019-02-12T01:21:53.761Z,9.12
2019-02-12T01:24:24.489Z,9.12
2019-02-12T01:26:55.106Z,9.09
2019-02-12T01:29:27.335Z,9.13
2019-02-12T01:31:58.126Z,8.95
2019-02-12T01:34:30.047Z,9.06
2019-02-12T01:37:01.268Z,9.06
2019-02-12T01:39:31.959Z,9.16
2019-02-12T01:42:02.883Z,9.16
2019-02-12T01:44:33.450Z,9.18
2019-02-12T01:47:04.457Z,9.29
2019-02-12T01:49:35.142Z,9.29
2019-02-12T01:52:05.798Z,9.29
2019-02-12T01:54:36.566Z,9.36
2019-02-12T01:57:06.971Z,9.43
2019-02-12T01:59:38.852Z,9.43
2019-02-12T02:02:09.558Z,9.44
2019-02-12T02:04:40.029Z,9.54
2019-02-12T02:07:10.652Z,9.52
2019-02-12T02:09:42.113Z,9.54
2019-02-12T02:12:13.296Z,9.51
2019-02-12T02:14:44.516Z,9.51
2019-02-12T02:17:15.881Z,9.38
2019-02-12T02:19:46.762Z,9.45
2019-02-12T02:22:18.617Z,9.39
2019-02-12T02:24:50.138Z,9.34
2019-02-12T02:27:23.499Z,9.31
2019-02-12T02:29:54.707Z,9.31
2019-02-12T02:32:26.729Z,9.32
2019-02-12T02:34:57.540Z,9.27
2019-02-12T02:37:28.209Z,9.19
2019-02-12T02:39:58.753Z,9.19
2019-02-12T02:42:29.478Z,9.23
2019-02-12T02:45:00.492Z,9.10
2019-02-12T02:47:32.657Z,9.09
2019-02-12T02:50:05.659Z,9.05
2019-02-12T02:52:37.669Z,9.05
2019-02-12T02:55:08.747Z,8.99
2019-02-12T02:57:39.561Z,8.96
2019-02-12T03:00:11.075Z,8.96
2019-02-12T03:02:41.915Z,8.85
2019-02-12T03:05:12.991Z,8.86
2019-02-12T03:07:43.655Z,8.89
2019-02-12T03:10:16.198Z,8.89
2019-02-12T03:12:46.864Z,8.99
2019-02-12T03:15:17.911Z,9.05
2019-02-12T03:17:50.120Z,9.11
2019-02-12T03:20:20.770Z,9.11
2019-02-12T03:22:52.325Z,9.13
2019-02-12T03:25:23.498Z,9.18
2019-02-12T03:27:56.124Z,9.14
2019-02-12T03:30:27.442Z,9.14
2019-02-12T03:32:58.296Z,9.21
2019-02-12T03:35:29.206Z,9.23
2019-02-12T03:37:59.929Z,9.26
2019-02-12T03:40:30.446Z,9.26
2019-02-12T03:43:01.331Z,9.19
2019-02-12T03:45:33.039Z,9.19
2019-02-12T03:48:04.918Z,9.21
2019-02-12T03:50:35.571Z,9.21
2019-02-12T03:53:06.771Z,9.21
2019-02-12T03:55:37.282Z,9.23
2019-02-12T03:58:08.274Z,9.21
2019-02-12T04:00:40.608Z,9.21
2019-02-12T04:03:10.996Z,9.16
2019-02-12T04:05:41.954Z,9.12
2019-02-12T04:08:12.729Z,9.09
2019-02-12T04:10:45.570Z,9.06
2019-02-12T04:13:16.237Z,9.04
2019-02-12T04:15:48.258Z,9.01
2019-02-12T04:18:18.872Z,8.94
2019-02-12T04:20:51.185Z,8.94
2019-02-12T04:23:21.973Z,9.03
2019-02-12T04:25:52.802Z,9.13
2019-02-12T04:28:25.083Z,9.15
2019-02-12T04:30:56.786Z,9.25
2019-02-12T04:33:27.609Z,9.31
2019-02-12T04:35:58.186Z,9.33
2019-02-12T04:38:28.931Z,9.32
2019-02-12T04:41:00.043Z,9.37
2019-02-12T04:43:32.231Z,9.42
2019-02-12T04:46:04.157Z,9.42
2019-02-12T04:48:35.088Z,9.56
2019-02-12T04:51:06.164Z,9.56
2019-02-12T04:53:37.031Z,9.59
2019-02-12T04:56:07.618Z,9.58
2019-02-12T04:58:38.916Z,9.69
2019-02-12T05:01:10.889Z,9.69
2019-02-12T05:03:41.484Z,9.69
2019-02-12T05:06:12.134Z,9.78
2019-02-12T05:09:13.819Z,9.78
2019-02-12T05:11:47.299Z,9.73
2019-02-12T05:14:17.700Z,9.79
2019-02-12T05:16:48.413Z,9.75
2019-02-12T05:19:18.946Z,9.75
2019-02-12T05:21:50.177Z,9.78
2019-02-12T05:24:21.393Z,9.78
2019-02-12T05:26:57.462Z,9.61
2019-02-12T05:29:29.838Z,9.61
2019-02-12T05:32:00.396Z,9.45
2019-02-12T05:34:31.603Z,9.48
2019-02-12T05:37:02.895Z,9.48
2019-02-12T05:39:33.553Z,9.39
2019-02-12T05:42:04.867Z,9.35
2019-02-12T05:44:36.126Z,9.28
2019-02-12T05:47:08.096Z,9.28
2019-02-12T05:49:41.531Z,8.99
2019-02-12T05:52:12.331Z,8.99
2019-02-12T05:54:43.177Z,8.82
2019-02-12T05:57:13.929Z,8.74
2019-02-12T05:59:46.985Z,8.66
2019-02-12T06:02:17.255Z,8.63
2019-02-12T06:04:48.310Z,8.55
2019-02-12T06:07:19.110Z,8.54
2019-02-12T06:09:50.326Z,8.48
2019-02-12T06:12:21.410Z,8.43
2019-02-12T06:14:53.734Z,8.39
2019-02-12T06:17:27.784Z,8.27
2019-02-12T06:19:59.588Z,8.27
2019-02-12T06:22:30.116Z,8.10
2019-02-12T06:25:01.764Z,7.90
2019-02-12T06:27:33.269Z,7.87
2019-02-12T06:30:04.566Z,7.75
2019-02-12T06:32:35.244Z,7.67
2019-02-12T06:35:05.733Z,7.70
2019-02-12T06:37:38.214Z,7.58
2019-02-12T06:40:09.679Z,7.62
2019-02-12T06:42:41.567Z,7.55
2019-02-12T06:45:12.469Z,7.52
2019-02-12T06:47:44.608Z,7.56
2019-02-12T06:50:15.863Z,7.55
2019-02-12T06:52:46.373Z,7.58
2019-02-12T06:55:17.607Z,7.60
2019-02-12T06:57:48.469Z,7.56
2019-02-12T07:00:18.998Z,7.48
2019-02-12T07:03:16.906Z,7.41
2019-02-12T07:06:00.337Z,7.38
2019-02-12T07:08:53.402Z,7.33
2019-02-12T07:11:44.189Z,7.25
2019-02-12T07:14:38.984Z,7.20
2019-02-12T07:17:43.576Z,7.14
2019-02-12T07:20:50.288Z,7.06
2019-02-12T07:24:20.120Z,6.95
2019-02-12T07:27:19.944Z,6.88
2019-02-12T07:30:37.173Z,6.79
2019-02-12T07:33:47.840Z,6.74
2019-02-12T07:36:51.974Z,6.62
2019-02-12T07:40:15.317Z,6.51
2019-02-12T07:43:18.692Z,6.55
2019-02-12T07:46:42.776Z,6.50
2019-02-12T07:49:56.857Z,6.58
2019-02-12T07:52:52.800Z,6.56
2019-02-12T07:56:01.633Z,6.68
2019-02-12T07:59:09.086Z,6.72
2019-02-12T08:02:07.909Z,6.78
2019-02-12T08:05:15.086Z,6.78
2019-02-12T08:08:32.316Z,6.83
2019-02-12T08:11:42.368Z,6.98
2019-02-12T08:14:48.854Z,7.04
2019-02-12T08:17:49.043Z,7.05
2019-02-12T08:21:10.774Z,7.15
2019-02-12T08:24:17.666Z,7.26
2019-02-12T08:27:26.359Z,7.24
2019-02-12T08:30:24.614Z,7.22
2019-02-12T08:33:27.553Z,7.45
2019-02-12T08:36:24.698Z,7.40
2019-02-12T08:39:38.667Z,7.48
2019-02-12T08:43:01.202Z,7.65
2019-02-12T08:46:15.654Z,7.52
2019-02-12T08:49:13.605Z,7.42
2019-02-12T08:52:14.759Z,7.57
2019-02-12T08:55:21.953Z,7.56
2019-02-12T08:58:38.668Z,7.55
2019-02-12T09:01:49.769Z,7.52
2019-02-12T09:04:48.947Z,7.37
2019-02-12T09:07:46.724Z,7.38
2019-02-12T09:10:39.033Z,7.36
2019-02-12T09:13:47.375Z,7.37
2019-02-12T09:16:41.658Z,7.40
2019-02-12T09:19:39.885Z,7.37
2019-02-12T09:22:50.611Z,7.48
2019-02-12T09:25:51.936Z,7.52
2019-02-12T09:28:41.266Z,7.64
2019-02-12T09:31:52.216Z,7.77
2019-02-12T09:34:51.250Z,7.84
2019-02-12T09:37:50.270Z,7.91
2019-02-12T09:40:55.552Z,7.90
2019-02-12T09:44:14.838Z,8.03
2019-02-12T09:47:13.034Z,8.18
2019-02-12T09:50:16.316Z,8.25
2019-02-12T09:53:15.269Z,8.23
2019-02-12T09:56:15.849Z,8.20
2019-02-12T09:59:17.209Z,8.22
2019-02-12T10:02:15.671Z,8.22
2019-02-12T10:05:38.733Z,8.21
2019-02-12T10:08:35.712Z,8.18
2019-02-12T10:11:28.470Z,8.17
2019-02-12T10:14:24.692Z,8.18
2019-02-12T10:17:31.198Z,8.05
2019-02-12T10:20:20.855Z,8.04
2019-02-12T10:23:33.878Z,8.08
2019-02-12T10:26:09.054Z,8.21
2019-02-12T10:29:20.700Z,8.28
2019-02-12T10:31:49.893Z,8.30
2019-02-12T10:34:20.316Z,8.43
2019-02-12T10:36:51.336Z,8.55
2019-02-12T10:39:21.970Z,8.69
2019-02-12T10:41:52.480Z,8.79
2019-02-12T10:44:24.227Z,8.85
2019-02-12T10:46:55.169Z,8.88
2019-02-12T10:49:26.986Z,8.81
2019-02-12T10:51:57.773Z,8.80
2019-02-12T10:54:28.461Z,8.83
2019-02-12T10:56:59.084Z,8.83
2019-02-12T10:59:30.244Z,8.70
2019-02-12T11:02:00.594Z,8.70
2019-02-12T11:04:32.037Z,8.59
2019-02-12T11:07:05.518Z,8.56
2019-02-12T11:09:36.654Z,8.56
2019-02-12T11:12:07.112Z,8.68
2019-02-12T11:14:37.748Z,8.79
2019-02-12T11:17:08.909Z,8.87
2019-02-12T11:19:39.823Z,8.93
2019-02-12T11:22:11.400Z,8.95
2019-02-12T11:24:42.158Z,9.03
2019-02-12T11:27:12.990Z,8.81
2019-02-12T11:29:43.416Z,8.83
2019-02-12T11:32:15.108Z,8.76
2019-02-12T11:34:46.487Z,8.77
2019-02-12T11:37:16.923Z,8.63
2019-02-12T11:39:47.845Z,8.58
2019-02-12T11:42:18.717Z,8.63
2019-02-12T11:44:49.209Z,8.54
2019-02-12T11:47:20.551Z,8.46
2019-02-12T11:49:51.100Z,8.49
2019-02-12T11:52:22.433Z,8.39
2019-02-12T11:54:52.879Z,8.35
2019-02-12T11:57:23.499Z,8.37
2019-02-12T11:59:53.991Z,8.29
2019-02-12T12:02:27.828Z,8.24
2019-02-12T12:04:58.218Z,8.23
2019-02-12T12:07:29.086Z,8.20
2019-02-12T12:10:00.177Z,8.20
2019-02-12T12:12:30.807Z,8.24
2019-02-12T12:15:01.481Z,8.24
2019-02-12T12:17:33.410Z,8.20
2019-02-12T12:20:03.934Z,8.25
2019-02-12T12:22:34.470Z,8.21
2019-02-12T12:25:05.498Z,8.27
2019-02-12T12:27:35.958Z,8.35
2019-02-12T12:30:08.478Z,8.40
2019-02-12T12:32:40.049Z,8.38
2019-02-12T12:35:11.823Z,8.45
2019-02-12T12:37:43.375Z,8.48
2019-02-12T12:40:14.305Z,8.44
2019-02-12T12:42:46.435Z,8.44
2019-02-12T12:45:17.118Z,8.45
2019-02-12T12:47:47.808Z,8.41
2019-02-12T12:50:21.922Z,8.41
2019-02-12T12:52:52.942Z,8.37
2019-02-12T12:55:25.323Z,8.32
2019-02-12T12:57:57.285Z,8.27
2019-02-12T13:00:28.513Z,8.22
2019-02-12T13:02:59.086Z,8.22
2019-02-12T13:05:29.749Z,8.17
2019-02-12T13:08:00.461Z,8.06
2019-02-12T13:10:30.978Z,8.10
2019-02-12T13:13:01.854Z,8.13
2019-02-12T13:15:32.506Z,8.13
2019-02-12T13:18:03.130Z,8.08
2019-02-12T13:20:34.149Z,8.01
2019-02-12T13:23:05.599Z,8.06
2019-02-12T13:25:36.133Z,8.03
2019-02-12T13:28:07.449Z,7.97
2019-02-12T13:30:38.949Z,7.98
2019-02-12T13:33:11.119Z,7.98
2019-02-12T13:35:42.886Z,7.98
2019-02-12T13:38:14.134Z,8.02
2019-02-12T13:40:44.905Z,7.99
2019-02-12T13:43:16.602Z,7.94
2019-02-12T13:45:49.865Z,7.93
2019-02-12T13:48:20.338Z,7.92
2019-02-12T13:50:51.042Z,7.90
2019-02-12T13:53:21.494Z,7.75
2019-02-12T13:55:51.897Z,7.71
2019-02-12T13:58:22.219Z,7.63
2019-02-12T14:00:53.171Z,7.62
2019-02-12T14:03:23.920Z,7.46
2019-02-12T14:05:54.354Z,7.49
2019-02-12T14:08:24.820Z,7.47
2019-02-12T14:10:55.152Z,7.42
2019-02-12T14:13:27.077Z,7.43
2019-02-12T14:15:57.702Z,7.42
2019-02-12T14:18:28.473Z,7.38
2019-02-12T14:20:59.554Z,7.35
2019-02-12T14:23:30.396Z,7.30
2019-02-12T14:26:02.100Z,7.23
2019-02-12T14:28:32.601Z,7.08
2019-02-12T14:31:03.709Z,7.12
2019-02-12T14:33:34.186Z,7.09
2019-02-12T14:36:04.653Z,7.11
2019-02-12T14:38:36.481Z,7.04
2019-02-12T14:41:06.903Z,7.09
2019-02-12T14:43:37.512Z,6.99
2019-02-12T14:46:08.075Z,7.04
2019-02-12T14:48:38.807Z,7.00
2019-02-12T14:51:09.190Z,7.04
2019-02-12T14:53:39.748Z,7.04
2019-02-12T14:56:11.559Z,7.04
2019-02-12T14:58:42.736Z,6.93
2019-02-12T15:01:13.497Z,6.89
2019-02-12T15:03:43.899Z,6.93
2019-02-12T15:06:15.955Z,6.88
2019-02-12T15:08:46.730Z,6.81
2019-02-12T15:11:17.713Z,6.65
2019-02-12T15:13:48.199Z,6.61
2019-02-12T15:16:19.228Z,6.59
2019-02-12T15:18:50.259Z,6.65
2019-02-12T15:21:21.223Z,6.58
2019-02-12T15:23:52.043Z,6.62
2019-02-12T15:26:24.177Z,6.57
2019-02-12T15:28:54.675Z,6.54
2019-02-12T15:31:25.100Z,6.61
2019-02-12T15:33:57.000Z,6.62
2019-02-12T15:36:27.605Z,6.68
2019-02-12T15:38:58.250Z,6.63
2019-02-12T15:41:29.171Z,6.58
2019-02-12T15:43:59.640Z,6.52
2019-02-12T15:46:30.240Z,6.49
2019-02-12T15:49:00.933Z,6.44
2019-02-12T15:51:31.578Z,6.41
2019-02-12T15:54:02.239Z,6.42
2019-02-12T15:56:33.306Z,6.38
2019-02-12T15:59:03.742Z,6.35
2019-02-12T16:01:34.746Z,6.28
2019-02-12T16:04:05.467Z,6.30
2019-02-12T16:06:36.863Z,6.24
2019-02-12T16:09:08.422Z,6.11
2019-02-12T16:11:40.009Z,6.08
2019-02-12T16:14:13.452Z,6.02
2019-02-12T16:16:44.713Z,6.01
2019-02-12T16:19:15.491Z,6.03
2019-02-12T16:21:46.143Z,5.99
2019-02-12T16:24:17.074Z,5.95
2019-02-12T16:26:47.579Z,5.94
2019-02-12T16:29:18.671Z,5.94
2019-02-12T16:31:49.273Z,6.00
2019-02-12T16:34:21.132Z,5.94
2019-02-12T16:36:51.916Z,5.94
2019-02-12T16:39:22.730Z,5.90
2019-02-12T16:41:54.781Z,5.91
2019-02-12T16:44:25.607Z,5.90
2019-02-12T16:46:57.035Z,5.88
2019-02-12T16:49:27.807Z,5.84
2019-02-12T16:52:00.083Z,5.89
2019-02-12T16:54:32.751Z,5.81
2019-02-12T16:57:03.865Z,5.83
2019-02-12T16:59:34.811Z,5.79
2019-02-12T17:02:07.010Z,5.74
2019-02-12T17:04:37.931Z,5.79
2019-02-12T17:07:12.003Z,5.75
2019-02-12T17:09:42.810Z,5.76
2019-02-12T17:12:14.139Z,5.80
2019-02-12T17:14:44.970Z,5.80
2019-02-12T17:17:15.747Z,5.85
2019-02-12T17:19:47.152Z,5.79
2019-02-12T17:22:21.343Z,5.82
2019-02-12T17:24:52.659Z,5.88
2019-02-12T17:27:23.913Z,5.79
2019-02-12T17:29:57.493Z,5.79
2019-02-12T17:32:29.292Z,5.82
2019-02-12T17:35:01.927Z,5.76
2019-02-12T17:37:32.975Z,5.73
2019-02-12T17:40:04.920Z,5.54
2019-02-12T17:42:37.971Z,5.30
2019-02-12T17:45:09.515Z,5.17
2019-02-12T17:47:40.434Z,5.10
2019-02-12T17:50:12.396Z,5.01
2019-02-12T17:52:43.545Z,4.95
2019-02-12T17:55:16.229Z,4.87
2019-02-12T17:57:46.944Z,4.83
2019-02-12T18:00:19.513Z,4.88
2019-02-12T18:02:52.743Z,4.90
2019-02-12T18:05:24.233Z,4.90
2019-02-12T18:07:55.096Z,4.90
2019-02-12T18:10:25.857Z,4.87
2019-02-12T18:12:56.167Z,4.91
2019-02-12T18:15:26.878Z,4.99
2019-02-12T18:17:58.134Z,5.02
2019-02-12T18:20:29.487Z,5.00
2019-02-12T18:23:01.772Z,4.98
2019-02-12T18:25:32.661Z,5.06
2019-02-12T18:28:04.108Z,5.07
2019-02-12T18:30:34.941Z,5.05
2019-02-12T18:33:06.670Z,5.02
2019-02-12T18:35:42.876Z,5.03
2019-02-12T18:38:13.290Z,5.05
2019-02-12T18:40:45.907Z,5.09
2019-02-12T18:43:18.051Z,5.13
2019-02-12T18:45:48.767Z,5.12
2019-02-12T18:48:20.347Z,5.14
2019-02-12T18:50:50.964Z,5.21
2019-02-12T18:53:22.650Z,5.23
2019-02-12T18:55:54.010Z,5.29
2019-02-12T18:58:30.368Z,5.29
2019-02-12T19:01:01.896Z,5.30
2019-02-12T19:03:39.946Z,5.36
2019-02-12T19:06:13.622Z,5.42
2019-02-12T19:08:45.769Z,5.50
2019-02-12T19:11:16.990Z,5.51
2019-02-12T19:13:47.562Z,5.47
2019-02-12T19:16:19.513Z,5.54
2019-02-12T19:18:51.879Z,5.61
2019-02-12T19:21:25.409Z,5.66
2019-02-12T19:23:55.816Z,5.64
2019-02-12T19:26:26.174Z,5.64
2019-02-12T19:28:57.102Z,5.72
2019-02-12T19:31:27.747Z,5.77
2019-02-12T19:33:58.500Z,5.77
2019-02-12T19:36:30.060Z,5.81
2019-02-12T19:39:01.005Z,5.89
2019-02-12T19:41:31.917Z,5.91
2019-02-12T19:44:03.525Z,5.92
2019-02-12T19:46:34.701Z,5.74
2019-02-12T19:49:05.541Z,5.69
2019-02-12T19:51:35.931Z,5.66
2019-02-12T19:54:06.607Z,5.64
2019-02-12T19:56:37.356Z,5.75
2019-02-12T19:59:08.878Z,5.79
2019-02-12T20:01:40.163Z,5.83
2019-02-12T20:04:10.896Z,5.94
2019-02-12T20:06:41.461Z,5.83
2019-02-12T20:09:23.200Z,5.85
2019-02-12T20:11:55.501Z,5.89
2019-02-12T20:14:26.152Z,5.84
2019-02-12T20:16:56.783Z,5.75
2019-02-12T20:19:28.541Z,5.68
2019-02-12T20:21:58.801Z,5.71
2019-02-12T20:24:29.663Z,5.82
2019-02-12T20:27:06.472Z,5.72
2019-02-12T20:29:32.094Z,5.79
2019-02-12T20:32:02.949Z,5.74
2019-02-12T20:34:38.211Z,5.60
2019-02-12T20:37:08.988Z,5.54
2019-02-12T20:39:41.017Z,5.60
2019-02-12T20:42:12.496Z,5.54
2019-02-12T20:44:43.616Z,5.62
2019-02-12T20:47:14.646Z,5.55
2019-02-12T20:49:45.320Z,5.52
2019-02-12T20:52:15.934Z,5.52
2019-02-12T20:54:47.248Z,5.48
2019-02-12T20:57:17.797Z,5.58
2019-02-12T20:59:48.555Z,5.62
2019-02-12T21:02:20.195Z,5.62
2019-02-12T21:04:50.754Z,5.58
2019-02-12T21:07:21.607Z,5.61
2019-02-12T21:09:52.347Z,5.48
2019-02-12T21:12:22.740Z,5.49
2019-02-12T21:14:53.235Z,5.50
2019-02-12T21:17:24.530Z,5.43
2019-02-12T21:19:56.529Z,5.48
2019-02-12T21:22:28.962Z,5.47
2019-02-12T21:25:00.322Z,5.45
2019-02-12T21:27:30.955Z,5.50
2019-02-12T21:30:01.825Z,5.55
2019-02-12T21:32:33.009Z,5.62
2019-02-12T21:37:36.147Z,5.72
2019-02-12T21:40:09.275Z,5.75
2019-02-12T21:42:40.415Z,5.80
2019-02-12T21:45:12.794Z,5.80
2019-02-12T21:47:43.724Z,5.84
2019-02-12T21:50:19.364Z,5.88
2019-02-12T21:52:49.970Z,5.91
2019-02-12T21:55:20.869Z,5.87
2019-02-12T21:57:51.446Z,5.86
2019-02-12T22:00:22.064Z,5.87
2019-02-12T22:02:54.862Z,5.85
2019-02-12T22:05:26.128Z,5.83
2019-02-12T22:07:56.690Z,5.86
2019-02-12T22:10:27.014Z,5.90
2019-02-12T22:12:57.438Z,5.94
2019-02-12T22:15:27.943Z,5.94
2019-02-12T22:17:58.605Z,5.84
2019-02-12T22:20:33.596Z,5.93
2019-02-12T22:23:05.539Z,6.00
2019-02-12T22:28:06.284Z,5.96
2019-02-12T22:30:38.319Z,5.93
2019-02-12T22:33:09.097Z,5.79
2019-02-12T22:35:39.816Z,5.75
2019-02-12T22:38:10.784Z,5.71
2019-02-12T22:40:41.611Z,5.66
2019-02-12T22:43:12.230Z,5.61
2019-02-12T22:45:44.629Z,5.55
2019-02-12T22:48:15.788Z,5.48
2019-02-12T22:50:46.215Z,5.46
2019-02-12T22:53:18.151Z,5.36
2019-02-12T22:55:48.883Z,5.25
2019-02-12T22:58:19.391Z,5.16
2019-02-12T23:01:06.063Z,5.15
2019-02-12T23:03:37.624Z,4.97
2019-02-12T23:06:08.155Z,4.98
2019-02-12T23:08:38.887Z,4.84
2019-02-12T23:11:09.312Z,4.82
2019-02-12T23:13:39.848Z,4.79
2019-02-12T23:16:10.539Z,4.72
2019-02-12T23:18:41.075Z,4.64
2019-02-12T23:21:11.445Z,4.64
2019-02-12T23:23:43.344Z,4.62
2019-02-12T23:26:14.614Z,4.58
2019-02-12T23:28:45.099Z,4.47
2019-02-12T23:31:16.498Z,4.31
2019-02-12T23:33:46.862Z,4.24
2019-02-12T23:36:17.283Z,4.19
2019-02-12T23:38:49.414Z,4.11
2019-02-12T23:41:20.313Z,4.05
2019-02-12T23:43:50.704Z,4.06
2019-02-12T23:46:20.999Z,4.02
2019-02-12T23:48:51.412Z,3.91
2019-02-12T23:51:21.464Z,3.79
2019-02-12T23:53:52.069Z,3.80
2019-02-12T23:56:22.658Z,3.78
2019-02-12T23:58:53.484Z,3.76
